createdAt,value
2022-12-01T00:02:08.157Z,2.20
2022-12-01T00:04:35.270Z,2.20
2022-12-01T00:07:02.769Z,2.20
2022-12-01T00:09:48.303Z,2.20
2022-12-01T00:12:15.219Z,2.20
2022-12-01T00:14:41.912Z,2.20
2022-12-01T00:17:08.541Z,2.20
2022-12-01T00:19:35.246Z,2.30
2022-12-01T00:22:02.163Z,2.30
2022-12-01T00:24:28.858Z,2.30
2022-12-01T00:26:55.531Z,2.20
2022-12-01T00:29:22.413Z,2.20
2022-12-01T00:31:49.736Z,2.20
2022-12-01T00:34:23.465Z,2.20
2022-12-01T00:36:50.542Z,2.20
2022-12-01T00:39:17.224Z,2.20
2022-12-01T00:41:43.949Z,2.20
2022-12-01T00:44:10.681Z,2.20
2022-12-01T00:46:37.440Z,2.20
2022-12-01T00:49:04.157Z,2.10
2022-12-01T00:51:30.900Z,2.10
2022-12-01T00:53:57.633Z,2.10
2022-12-01T00:56:24.375Z,2.20
2022-12-01T00:58:51.038Z,2.20
2022-12-01T01:01:17.767Z,2.20
2022-12-01T01:03:44.485Z,2.20
2022-12-01T01:06:11.786Z,2.10
2022-12-01T01:08:39.236Z,2.20
2022-12-01T01:11:06.415Z,2.10
2022-12-01T01:13:33.536Z,2.10
2022-12-01T01:16:01.371Z,2.00
2022-12-01T01:18:28.100Z,2.00
2022-12-01T01:20:55.709Z,2.00
2022-12-01T01:23:22.406Z,2.00
2022-12-01T01:25:49.777Z,2.00
2022-12-01T01:28:16.445Z,2.00
2022-12-01T01:30:43.113Z,2.00
2022-12-01T01:33:10.261Z,2.00
2022-12-01T01:35:37.020Z,2.00
2022-12-01T01:38:03.926Z,2.00
2022-12-01T01:40:30.587Z,2.00
2022-12-01T01:42:57.317Z,1.90
2022-12-01T01:45:25.819Z,1.90
2022-12-01T01:47:53.556Z,1.90
2022-12-01T01:50:21.821Z,2.00
2022-12-01T01:52:51.589Z,2.00
2022-12-01T01:55:18.541Z,2.00
2022-12-01T01:57:45.483Z,2.00
2022-12-01T02:00:13.920Z,2.00
2022-12-01T02:02:44.574Z,2.00
2022-12-01T02:05:20.613Z,2.00
2022-12-01T02:07:47.878Z,2.10
2022-12-01T02:10:15.423Z,2.10
2022-12-01T02:13:00.913Z,2.00
2022-12-01T02:15:39.396Z,2.10
2022-12-01T02:18:09.171Z,2.00
2022-12-01T02:20:44.859Z,2.00
2022-12-01T02:23:11.509Z,2.00
2022-12-01T02:25:47.343Z,2.00
2022-12-01T02:28:27.354Z,2.00
2022-12-01T02:30:57.060Z,2.00
2022-12-01T02:33:36.453Z,2.00
2022-12-01T02:36:05.839Z,2.00
2022-12-01T02:38:35.536Z,2.00
2022-12-01T02:41:05.350Z,2.00
2022-12-01T02:43:34.607Z,2.00
2022-12-01T02:46:12.662Z,2.00
2022-12-01T02:48:42.912Z,2.00
2022-12-01T02:51:14.584Z,2.00
2022-12-01T02:53:41.433Z,2.00
2022-12-01T02:56:10.775Z,2.10
2022-12-01T02:58:37.414Z,2.10
2022-12-01T03:01:19.107Z,2.00
2022-12-01T03:04:00.694Z,2.00
2022-12-01T03:06:36.610Z,1.90
2022-12-01T03:09:10.172Z,1.90
2022-12-01T03:11:44.813Z,1.90
2022-12-01T03:14:22.898Z,1.90
2022-12-01T03:16:53.838Z,1.90
2022-12-01T03:19:32.524Z,1.90
2022-12-01T03:22:05.012Z,1.90
2022-12-01T03:24:52.670Z,1.90
2022-12-01T03:27:21.409Z,1.90
2022-12-01T03:29:50.244Z,1.90
2022-12-01T03:32:19.920Z,1.90
2022-12-01T03:35:01.354Z,1.90
2022-12-01T03:37:32.189Z,1.90
2022-12-01T03:40:01.051Z,1.90
2022-12-01T03:42:30.369Z,1.90
2022-12-01T03:45:00.038Z,1.80
2022-12-01T03:47:30.842Z,1.80
2022-12-01T03:49:58.265Z,1.80
2022-12-01T03:52:45.539Z,1.70
2022-12-01T03:55:15.090Z,1.70
2022-12-01T03:57:46.388Z,1.70
2022-12-01T04:00:13.995Z,1.70
2022-12-01T04:02:41.368Z,1.70
2022-12-01T04:05:11.408Z,1.70
2022-12-01T04:07:38.641Z,1.70
2022-12-01T04:10:06.004Z,1.70
2022-12-01T04:12:33.197Z,1.80
2022-12-01T04:15:01.258Z,1.80
2022-12-01T04:17:28.406Z,1.80
2022-12-01T04:19:55.491Z,1.80
2022-12-01T04:22:23.098Z,1.80
2022-12-01T04:24:49.810Z,1.80
2022-12-01T04:27:16.534Z,1.90
2022-12-01T04:29:43.225Z,1.90
2022-12-01T04:32:10.025Z,1.90
2022-12-01T04:34:37.059Z,1.90
2022-12-01T04:37:03.910Z,1.90
2022-12-01T04:39:30.571Z,1.90
2022-12-01T04:41:57.271Z,1.90
2022-12-01T04:44:23.984Z,1.90
2022-12-01T04:46:51.133Z,1.90
2022-12-01T04:49:17.846Z,1.90
2022-12-01T04:51:44.565Z,2.00
2022-12-01T04:54:11.384Z,1.90
2022-12-01T04:56:38.059Z,1.90
2022-12-01T04:59:04.769Z,1.90
2022-12-01T05:01:31.469Z,1.90
2022-12-01T05:03:58.318Z,1.90
2022-12-01T05:06:26.072Z,1.90
2022-12-01T05:08:55.050Z,1.80
2022-12-01T05:11:22.101Z,1.70
2022-12-01T05:13:49.408Z,1.70
2022-12-01T05:16:17.925Z,1.70
2022-12-01T05:18:47.678Z,1.70
2022-12-01T05:21:14.347Z,1.70
2022-12-01T05:23:41.057Z,1.60
2022-12-01T05:26:08.592Z,1.70
2022-12-01T05:28:35.715Z,1.60
2022-12-01T05:31:02.722Z,1.60
2022-12-01T05:33:29.851Z,1.60
2022-12-01T05:35:56.915Z,1.60
2022-12-01T05:38:23.917Z,1.50
2022-12-01T05:40:54.786Z,1.50
2022-12-01T05:43:27.158Z,1.50
2022-12-01T05:45:55.760Z,1.50
2022-12-01T05:48:22.850Z,1.50
2022-12-01T05:50:49.489Z,1.40
2022-12-01T05:53:16.205Z,1.40
2022-12-01T05:55:42.855Z,1.40
2022-12-01T05:58:09.987Z,1.40
2022-12-01T06:00:43.715Z,1.30
2022-12-01T06:03:12.235Z,1.30
2022-12-01T06:05:39.010Z,1.20
2022-12-01T06:08:05.795Z,1.20
2022-12-01T06:10:32.626Z,1.20
2022-12-01T06:12:59.259Z,1.20
2022-12-01T06:15:26.100Z,1.20
2022-12-01T06:17:52.790Z,1.30
2022-12-01T06:20:19.668Z,1.30
2022-12-01T06:22:46.601Z,1.30
2022-12-01T06:25:13.458Z,1.30
2022-12-01T06:27:40.143Z,1.30
2022-12-01T06:30:07.363Z,1.30
2022-12-01T06:32:34.072Z,1.30
2022-12-01T06:35:00.753Z,1.30
2022-12-01T06:37:27.701Z,1.30
2022-12-01T06:39:54.401Z,1.20
2022-12-01T06:42:21.145Z,1.20
2022-12-01T06:44:47.867Z,1.20
2022-12-01T06:47:16.028Z,1.20
2022-12-01T06:49:42.818Z,1.20
2022-12-01T06:52:10.002Z,1.20
2022-12-01T06:54:37.560Z,1.20
2022-12-01T06:57:04.406Z,1.20
2022-12-01T06:59:31.338Z,1.20
2022-12-01T07:01:58.667Z,1.20
2022-12-01T07:04:25.420Z,1.30
2022-12-01T07:06:52.087Z,1.30
2022-12-01T07:09:18.897Z,1.20
2022-12-01T07:11:45.595Z,1.20
2022-12-01T07:14:23.280Z,1.20
2022-12-01T07:16:50.090Z,1.10
2022-12-01T07:19:16.795Z,1.10
2022-12-01T07:21:43.715Z,1.10
2022-12-01T07:24:12.673Z,1.20
2022-12-01T07:26:41.141Z,1.20
2022-12-01T07:29:09.072Z,1.20
2022-12-01T07:31:36.782Z,1.20
2022-12-01T07:34:03.566Z,1.20
2022-12-01T07:36:30.631Z,1.20
2022-12-01T07:38:57.300Z,1.20
2022-12-01T07:41:24.465Z,1.20
2022-12-01T07:43:51.400Z,1.20
2022-12-01T07:46:23.173Z,1.20
2022-12-01T07:48:50.653Z,1.20
2022-12-01T07:51:17.717Z,1.20
2022-12-01T07:53:45.217Z,1.20
2022-12-01T07:56:11.977Z,1.20
2022-12-01T07:58:38.676Z,1.30
2022-12-01T08:01:06.603Z,1.30
2022-12-01T08:03:33.414Z,1.30
2022-12-01T08:06:01.010Z,1.30
2022-12-01T08:08:27.925Z,1.30
2022-12-01T08:10:59.540Z,1.40
2022-12-01T08:13:26.206Z,1.40
2022-12-01T08:15:52.895Z,1.40
2022-12-01T08:18:19.736Z,1.40
2022-12-01T08:20:46.558Z,1.40
2022-12-01T08:23:13.253Z,1.30
2022-12-01T08:25:39.991Z,1.30
2022-12-01T08:28:06.670Z,1.20
2022-12-01T08:30:33.385Z,1.20
2022-12-01T08:33:00.049Z,1.20
2022-12-01T08:35:26.835Z,1.10
2022-12-01T08:37:53.660Z,1.00
2022-12-01T08:40:20.979Z,1.00
2022-12-01T08:42:47.730Z,1.00
2022-12-01T08:45:14.723Z,1.00
2022-12-01T08:47:41.433Z,1.00
2022-12-01T08:50:08.314Z,1.00
2022-12-01T08:52:35.334Z,1.00
2022-12-01T08:55:02.321Z,1.00
2022-12-01T08:57:29.972Z,1.00
2022-12-01T08:59:56.735Z,1.00
2022-12-01T09:02:23.741Z,1.00
2022-12-01T09:04:50.904Z,1.00
2022-12-01T09:07:22.826Z,1.10
2022-12-01T09:09:52.633Z,1.10
2022-12-01T09:12:19.563Z,1.10
2022-12-01T09:14:48.281Z,1.10
2022-12-01T09:17:15.713Z,1.10
2022-12-01T09:19:42.738Z,1.10
2022-12-01T09:22:10.017Z,1.10
2022-12-01T09:24:36.783Z,1.10
2022-12-01T09:27:04.427Z,1.10
2022-12-01T09:29:31.503Z,1.10
2022-12-01T09:31:58.941Z,1.10
2022-12-01T09:34:26.623Z,1.20
2022-12-01T09:36:57.724Z,1.20
2022-12-01T09:39:24.675Z,1.20
2022-12-01T09:41:52.011Z,1.20
2022-12-01T09:44:20.758Z,1.20
2022-12-01T09:46:53.201Z,1.20
2022-12-01T09:49:25.561Z,1.20
2022-12-01T09:51:53.600Z,1.10
2022-12-01T09:54:20.510Z,1.10
2022-12-01T09:56:50.257Z,1.00
2022-12-01T09:59:19.584Z,1.10
2022-12-01T10:01:48.071Z,1.10
2022-12-01T10:04:19.454Z,1.10
2022-12-01T10:06:50.102Z,1.20
2022-12-01T10:09:19.772Z,1.20
2022-12-01T10:11:47.293Z,1.20
2022-12-01T10:14:20.749Z,1.20
2022-12-01T10:16:50.363Z,1.20
2022-12-01T10:19:36.005Z,1.20
2022-12-01T10:22:24.775Z,1.20
2022-12-01T10:24:58.499Z,1.20
2022-12-01T10:27:38.854Z,1.20
2022-12-01T10:30:08.815Z,1.30
2022-12-01T10:32:35.478Z,1.30
2022-12-01T10:35:02.605Z,1.20
2022-12-01T10:37:30.486Z,1.20
2022-12-01T10:39:57.889Z,1.20
2022-12-01T10:42:29.306Z,1.20
2022-12-01T10:44:57.267Z,1.20
2022-12-01T10:47:24.848Z,1.10
2022-12-01T10:49:52.082Z,1.10
2022-12-01T10:52:31.389Z,1.10
2022-12-01T10:54:58.078Z,1.10
2022-12-01T10:57:26.368Z,1.10
2022-12-01T10:59:56.543Z,1.20
2022-12-01T11:02:26.629Z,1.30
2022-12-01T11:04:53.490Z,1.30
2022-12-01T11:07:32.238Z,1.40
2022-12-01T11:10:08.426Z,1.40
2022-12-01T11:12:35.449Z,1.40
2022-12-01T11:15:02.423Z,1.40
2022-12-01T11:17:37.108Z,1.40
2022-12-01T11:20:23.044Z,1.30
2022-12-01T11:22:50.152Z,1.30
2022-12-01T11:25:21.670Z,1.20
2022-12-01T11:27:50.862Z,1.10
2022-12-01T11:30:23.357Z,1.20
2022-12-01T11:32:54.317Z,1.10
2022-12-01T11:35:22.249Z,1.10
2022-12-01T11:38:20.999Z,1.10
2022-12-01T11:40:54.353Z,1.00
2022-12-01T11:43:27.850Z,1.10
2022-12-01T11:45:55.884Z,1.10
2022-12-01T11:48:25.635Z,1.10
2022-12-01T11:51:11.298Z,1.20
2022-12-01T11:53:39.353Z,1.20
2022-12-01T11:56:23.511Z,1.20
2022-12-01T11:58:53.366Z,1.20
2022-12-01T12:01:26.509Z,1.20
2022-12-01T12:03:53.328Z,1.30
2022-12-01T12:06:42.953Z,1.30
2022-12-01T12:09:15.914Z,1.40
2022-12-01T12:11:51.907Z,1.40
2022-12-01T12:14:22.216Z,1.40
2022-12-01T12:16:58.327Z,1.40
2022-12-01T12:20:00.157Z,1.50
2022-12-01T12:22:27.316Z,1.50
2022-12-01T12:25:07.573Z,1.50
2022-12-01T12:27:46.654Z,1.50
2022-12-01T12:30:21.478Z,1.50
2022-12-01T12:32:50.953Z,1.50
2022-12-01T12:35:20.664Z,1.50
2022-12-01T12:38:12.347Z,1.50
2022-12-01T12:40:45.244Z,1.50
2022-12-01T12:43:23.046Z,1.60
2022-12-01T12:46:00.060Z,1.60
2022-12-01T12:48:38.674Z,1.60
2022-12-01T12:51:20.085Z,1.50
2022-12-01T12:53:52.900Z,1.50
2022-12-01T12:56:21.142Z,1.50
2022-12-01T12:59:00.698Z,1.50
2022-12-01T13:01:30.709Z,1.60
2022-12-01T13:04:00.287Z,1.50
2022-12-01T13:06:32.059Z,1.50
2022-12-01T13:09:21.998Z,1.50
2022-12-01T13:11:55.127Z,1.40
2022-12-01T13:14:28.850Z,1.40
2022-12-01T13:16:58.708Z,1.40
2022-12-01T13:19:27.112Z,1.40
2022-12-01T13:21:54.888Z,1.30
2022-12-01T13:24:24.672Z,1.30
2022-12-01T13:26:54.174Z,1.20
2022-12-01T13:29:22.212Z,1.30
2022-12-01T13:31:50.561Z,1.30
2022-12-01T13:34:22.553Z,1.20
2022-12-01T13:36:51.180Z,1.20
2022-12-01T13:39:22.681Z,1.20
2022-12-01T13:42:08.325Z,1.20
2022-12-01T13:44:40.675Z,1.20
2022-12-01T13:47:10.626Z,1.20
2022-12-01T13:49:45.259Z,1.10
2022-12-01T13:52:21.146Z,1.10
2022-12-01T13:55:01.622Z,1.10
2022-12-01T13:57:30.557Z,1.20
2022-12-01T14:00:00.460Z,1.20
2022-12-01T14:02:32.041Z,1.20
2022-12-01T14:05:17.911Z,1.20
2022-12-01T14:07:44.688Z,1.20
2022-12-01T14:10:20.739Z,1.30
2022-12-01T14:12:48.803Z,1.30
2022-12-01T14:15:30.022Z,1.30
2022-12-01T14:18:04.784Z,1.40
2022-12-01T14:20:33.833Z,1.30
2022-12-01T14:23:03.435Z,1.20
2022-12-01T14:25:30.838Z,1.20
2022-12-01T14:27:59.309Z,1.10
2022-12-01T14:30:41.887Z,1.10
2022-12-01T14:33:27.578Z,1.10
2022-12-01T14:35:58.168Z,1.00
2022-12-01T14:38:24.963Z,0.90
2022-12-01T14:40:52.416Z,1.00
2022-12-01T14:43:38.816Z,0.90
2022-12-01T14:46:07.805Z,0.90
2022-12-01T14:48:37.618Z,0.90
2022-12-01T14:51:26.216Z,0.90
2022-12-01T14:53:54.758Z,0.90
2022-12-01T14:56:22.554Z,1.00
2022-12-01T14:58:52.274Z,1.00
2022-12-01T15:01:19.090Z,1.00
2022-12-01T15:03:48.821Z,1.10
2022-12-01T15:06:16.901Z,1.10
2022-12-01T15:08:58.160Z,1.10
2022-12-01T15:11:30.525Z,1.10
2022-12-01T15:13:57.558Z,1.10
2022-12-01T15:16:40.163Z,1.10
2022-12-01T15:19:22.076Z,1.10
2022-12-01T15:21:48.777Z,1.10
2022-12-01T15:24:22.759Z,1.10
2022-12-01T15:26:50.940Z,1.10
2022-12-01T15:29:22.225Z,1.00
2022-12-01T15:31:53.525Z,1.10
2022-12-01T15:34:25.262Z,1.00
2022-12-01T15:36:52.750Z,1.10
2022-12-01T15:39:21.681Z,1.10
2022-12-01T15:41:54.249Z,1.00
2022-12-01T15:44:41.337Z,1.00
2022-12-01T15:47:26.807Z,1.00
2022-12-01T15:49:53.478Z,1.10
2022-12-01T15:52:21.777Z,1.10
2022-12-01T15:54:49.400Z,1.00
2022-12-01T15:57:18.472Z,1.00
2022-12-01T15:59:46.746Z,0.90
2022-12-01T16:02:19.612Z,0.90
2022-12-01T16:04:47.405Z,0.90
2022-12-01T16:07:14.866Z,0.90
2022-12-01T16:09:58.098Z,0.90
2022-12-01T16:12:26.085Z,0.90
2022-12-01T16:14:54.834Z,0.90
2022-12-01T16:17:22.241Z,0.90
2022-12-01T16:19:49.003Z,0.90
2022-12-01T16:22:21.680Z,0.90
2022-12-01T16:24:53.222Z,0.90
2022-12-01T16:27:27.313Z,0.90
2022-12-01T16:29:53.998Z,0.90
2022-12-01T16:32:23.474Z,0.90
2022-12-01T16:34:51.399Z,0.90
2022-12-01T16:37:18.066Z,1.00
2022-12-01T16:39:44.864Z,1.00
2022-12-01T16:42:15.895Z,0.90
2022-12-01T16:44:43.605Z,0.90
2022-12-01T16:47:20.608Z,0.90
2022-12-01T16:49:47.615Z,1.00
2022-12-01T16:55:01.376Z,0.90
2022-12-01T16:57:28.575Z,0.90
2022-12-01T16:59:55.251Z,0.90
2022-12-01T17:02:21.969Z,0.90
2022-12-01T17:04:48.992Z,0.80
2022-12-01T17:07:15.899Z,0.80
2022-12-01T17:09:42.570Z,0.80
2022-12-01T17:12:09.793Z,0.70
2022-12-01T17:14:36.499Z,0.70
2022-12-01T17:17:03.844Z,0.60
2022-12-01T17:19:30.605Z,0.60
2022-12-01T17:21:57.325Z,0.60
2022-12-01T17:24:26.015Z,0.60
2022-12-01T17:26:52.713Z,0.60
2022-12-01T17:29:19.434Z,0.70
2022-12-01T17:31:46.151Z,0.70
2022-12-01T17:34:12.804Z,0.80
2022-12-01T17:36:39.718Z,0.90
2022-12-01T17:39:07.484Z,0.90
2022-12-01T17:41:35.795Z,0.90
2022-12-01T17:44:03.415Z,0.90
2022-12-01T17:46:30.300Z,0.90
2022-12-01T17:48:57.026Z,0.90
2022-12-01T17:51:23.876Z,0.90
2022-12-01T17:53:52.340Z,0.90
2022-12-01T17:56:19.118Z,0.90
2022-12-01T17:58:45.789Z,0.90
2022-12-01T18:01:15.174Z,0.90
2022-12-01T18:03:42.218Z,0.90
2022-12-01T18:06:10.807Z,0.90
2022-12-01T18:08:37.959Z,0.90
2022-12-01T18:11:10.025Z,0.90
2022-12-01T18:13:38.307Z,0.90
2022-12-01T18:16:09.180Z,0.90
2022-12-01T18:18:39.248Z,0.90
2022-12-01T18:21:06.786Z,0.90
2022-12-01T18:23:33.671Z,0.80
2022-12-01T18:26:05.101Z,0.80
2022-12-01T18:28:32.365Z,0.70
2022-12-01T18:31:03.254Z,0.70
2022-12-01T18:33:30.867Z,0.60
2022-12-01T18:35:57.594Z,0.60
2022-12-01T18:38:25.020Z,0.70
2022-12-01T18:40:51.694Z,0.60
2022-12-01T18:43:18.377Z,0.70
2022-12-01T18:45:45.475Z,0.70
2022-12-01T18:48:12.273Z,0.70
2022-12-01T18:50:38.956Z,0.70
2022-12-01T18:53:05.665Z,0.70
2022-12-01T18:55:35.466Z,0.70
2022-12-01T18:58:02.385Z,0.70
2022-12-01T19:00:29.190Z,0.70
2022-12-01T19:02:55.955Z,0.70
2022-12-01T19:05:22.751Z,0.70
2022-12-01T19:07:49.622Z,0.80
2022-12-01T19:10:16.771Z,0.80
2022-12-01T19:12:43.479Z,0.80
2022-12-01T19:15:11.201Z,0.70
2022-12-01T19:17:38.298Z,0.70
2022-12-01T19:20:05.499Z,0.80
2022-12-01T19:22:32.512Z,0.70
2022-12-01T19:24:59.565Z,0.80
2022-12-01T19:27:28.180Z,0.80
2022-12-01T19:29:54.868Z,0.70
2022-12-01T19:32:21.922Z,0.80
2022-12-01T19:34:49.375Z,0.80
2022-12-01T19:37:16.315Z,0.70
2022-12-01T19:39:43.849Z,0.70
2022-12-01T19:42:10.679Z,0.70
2022-12-01T19:44:37.341Z,0.70
2022-12-01T19:47:07.837Z,0.70
2022-12-01T19:49:34.682Z,0.60
2022-12-01T19:52:01.424Z,0.60
2022-12-01T19:54:28.927Z,0.60
2022-12-01T19:56:55.627Z,0.50
2022-12-01T19:59:22.271Z,0.60
2022-12-01T20:01:49.147Z,0.60
2022-12-01T20:04:16.054Z,0.50
2022-12-01T20:06:44.195Z,0.50
2022-12-01T20:09:10.950Z,0.50
2022-12-01T20:11:37.863Z,0.60
2022-12-01T20:14:05.627Z,0.50
2022-12-01T20:16:32.558Z,0.50
2022-12-01T20:19:00.378Z,0.50
2022-12-01T20:21:30.049Z,0.40
2022-12-01T20:24:00.857Z,0.40
2022-12-01T20:26:35.521Z,0.40
2022-12-01T20:29:04.301Z,0.40
2022-12-01T20:31:32.283Z,0.40
2022-12-01T20:34:00.598Z,0.40
2022-12-01T20:36:27.535Z,0.40
2022-12-01T20:38:54.623Z,0.40
2022-12-01T20:41:21.537Z,0.50
2022-12-01T20:43:48.382Z,0.40
2022-12-01T20:46:15.174Z,0.50
2022-12-01T20:48:41.961Z,0.50
2022-12-01T20:51:09.050Z,0.40
2022-12-01T20:53:36.290Z,0.50
2022-12-01T20:56:04.168Z,0.50
2022-12-01T20:58:36.038Z,0.40
2022-12-01T21:01:12.131Z,0.50
2022-12-01T21:03:39.635Z,0.50
2022-12-01T21:06:06.896Z,0.40
2022-12-01T21:08:33.801Z,0.50
2022-12-01T21:11:04.284Z,0.50
2022-12-01T21:13:42.136Z,0.40
2022-12-01T21:16:21.435Z,0.40
2022-12-01T21:18:48.203Z,0.40
2022-12-01T21:21:21.204Z,0.40
2022-12-01T21:23:53.343Z,0.40
2022-12-01T21:26:20.002Z,0.40
2022-12-01T21:28:46.845Z,0.40
2022-12-01T21:31:14.454Z,0.30
2022-12-01T21:33:41.960Z,0.30
2022-12-01T21:36:14.211Z,0.30
2022-12-01T21:38:41.779Z,0.20
2022-12-01T21:41:25.831Z,0.30
2022-12-01T21:43:54.032Z,0.20
2022-12-01T21:46:20.793Z,0.20
2022-12-01T21:48:47.630Z,0.20
2022-12-01T21:51:23.006Z,0.20
2022-12-01T21:53:50.470Z,0.20
2022-12-01T21:56:21.823Z,0.20
2022-12-01T21:58:48.711Z,0.20
2022-12-01T22:01:29.063Z,0.20
2022-12-01T22:04:01.846Z,0.20
2022-12-01T22:06:38.345Z,0.20
2022-12-01T22:09:38.051Z,0.20
2022-12-01T22:12:10.847Z,0.20
2022-12-01T22:14:37.888Z,0.30
2022-12-01T22:17:07.621Z,0.30
2022-12-01T22:19:34.267Z,0.30
2022-12-01T22:22:03.956Z,0.30
2022-12-01T22:24:36.757Z,0.30
2022-12-01T22:27:22.362Z,0.30
2022-12-01T22:29:50.947Z,0.20
2022-12-01T22:32:23.763Z,0.20
2022-12-01T22:34:56.146Z,0.20
2022-12-01T22:37:24.851Z,0.20
2022-12-01T22:39:56.226Z,0.30
2022-12-01T22:42:30.747Z,0.30
2022-12-01T22:44:59.569Z,0.30
2022-12-01T22:47:27.488Z,0.30
2022-12-01T22:49:54.151Z,0.30
2022-12-01T22:52:25.912Z,0.30
2022-12-01T22:54:52.729Z,0.30
2022-12-01T22:57:24.634Z,0.30
2022-12-01T22:59:51.906Z,0.30
2022-12-01T23:02:20.979Z,0.30
2022-12-01T23:04:49.051Z,0.30
2022-12-01T23:07:30.284Z,0.30
2022-12-01T23:10:04.906Z,0.30
2022-12-01T23:12:33.061Z,0.40
2022-12-01T23:15:06.996Z,0.30
2022-12-01T23:17:35.650Z,0.30
2022-12-01T23:20:10.332Z,0.30
2022-12-01T23:22:37.714Z,0.30
2022-12-01T23:25:17.754Z,0.30
2022-12-01T23:27:45.575Z,0.30
2022-12-01T23:30:12.927Z,0.30
2022-12-01T23:32:39.644Z,0.30
2022-12-01T23:35:10.327Z,0.30
2022-12-01T23:37:39.152Z,0.30
2022-12-01T23:40:14.729Z,0.30
2022-12-01T23:42:41.719Z,0.30
2022-12-01T23:45:14.302Z,0.40
2022-12-01T23:47:41.048Z,0.30
2022-12-01T23:50:15.232Z,0.30
2022-12-01T23:52:41.923Z,0.30
2022-12-01T23:55:14.413Z,0.30
2022-12-01T23:57:41.075Z,0.30
